Time;durP1;ratioP1;P1;durP2;ratioP2;P2;SDS_P1;SDS_P2;PMS_P1;PMS_P2;Temp;Humidity;BMP_temperature;BMP_pressure;BME280_temperature;BME280_humidity;BME280_pressure;Samples;Min_cycle;Max_cycle;Signal;HPM_P1;HPM_P2
2022/06/09 00:01:35;;;;;;;9.30;4.30;;;;;;;19.69;40.95;99942.43;117375;1186;23576;-48
2022/06/09 00:04:11;;;;;;;8.60;4.20;;;;;;;19.60;40.96;99938.34;117346;1186;22989;-55
2022/06/09 00:06:52;;;;;;;7.30;4.20;;;;;;;19.52;41.09;99944.64;117389;1185;22974;-54
2022/06/09 00:09:21;;;;;;;10.40;4.80;;;;;;;19.49;41.21;99944.64;117418;1185;21958;-55
2022/06/09 00:11:49;;;;;;;9.50;3.90;;;;;;;19.44;41.31;99941.34;117457;1186;21929;-48
2022/06/09 00:14:17;;;;;;;10.80;4.30;;;;;;;19.34;41.36;99936.23;117448;1186;21849;-54
2022/06/09 00:16:44;;;;;;;6.80;4.40;;;;;;;19.27;41.53;99933.41;117308;1186;22556;-54
2022/06/09 00:19:11;;;;;;;9.20;4.80;;;;;;;19.27;41.56;99937.88;117434;1186;23092;-48
2022/06/09 00:21:38;;;;;;;6.30;4.10;;;;;;;19.28;41.62;99930.70;117492;1185;23551;-48
2022/06/09 00:24:06;;;;;;;7.30;4.30;;;;;;;19.26;41.70;99928.80;117383;1185;23535;-54
2022/06/09 00:26:33;;;;;;;9.40;4.80;;;;;;;19.24;41.78;99930.90;117453;1186;23550;-54
2022/06/09 00:29:01;;;;;;;10.10;4.40;;;;;;;19.21;41.79;99937.30;117416;1185;23537;-54
2022/06/09 00:31:28;;;;;;;8.50;4.70;;;;;;;19.18;41.84;99938.55;117464;1182;24213;-48
2022/06/09 00:33:55;;;;;;;7.30;4.50;;;;;;;19.18;42.05;99939.41;117394;1186;21878;-55
2022/06/09 00:36:22;;;;;;;11.70;5.00;;;;;;;19.19;42.01;99937.06;117383;1182;23532;-55
2022/06/09 00:38:49;;;;;;;8.60;4.90;;;;;;;19.21;41.99;99938.38;117331;1184;24193;-54
2022/06/09 00:41:16;;;;;;;7.30;4.50;;;;;;;19.21;42.10;99942.66;117426;1185;23537;-48
2022/06/09 00:43:44;;;;;;;8.30;4.60;;;;;;;19.20;42.15;99938.06;117361;1184;22982;-54
2022/06/09 00:46:11;;;;;;;8.90;5.00;;;;;;;19.20;42.15;99940.06;117443;1186;21879;-53
2022/06/09 00:49:01;;;;;;;6.70;4.30;;;;;;;19.17;42.30;99943.38;117310;1181;22959;-48
2022/06/09 00:51:39;;;;;;;7.80;4.80;;;;;;;19.16;42.31;99942.56;117399;1186;23070;-48
2022/06/09 00:54:07;;;;;;;9.00;5.40;;;;;;;19.15;42.41;99939.25;117406;1180;24150;-54
2022/06/09 00:56:36;;;;;;;10.30;5.20;;;;;;;19.13;42.48;99939.66;117453;1186;22809;-48
2022/06/09 00:59:03;;;;;;;11.00;4.80;;;;;;;19.09;42.53;99935.30;117377;1183;23574;-54
2022/06/09 01:01:30;;;;;;;9.30;5.20;;;;;;;19.06;42.49;99936.73;117392;1186;22969;-48
2022/06/09 01:04:03;;;;;;;11.20;5.10;;;;;;;19.06;42.70;99936.19;117390;1185;22914;-48
2022/06/09 01:06:34;;;;;;;10.40;5.30;;;;;;;19.05;42.61;99938.38;117440;1183;21858;-54
2022/06/09 01:09:12;;;;;;;7.40;4.70;;;;;;;19.03;42.72;99937.38;117482;1185;23425;-48
2022/06/09 01:11:39;;;;;;;9.10;4.70;;;;;;;19.01;42.72;99936.79;117408;1179;21841;-54
2022/06/09 01:14:06;;;;;;;9.80;5.40;;;;;;;18.98;42.80;99935.20;117373;1183;22892;-54
2022/06/09 01:16:41;;;;;;;7.40;4.90;;;;;;;18.93;42.89;99933.80;117423;1187;21856;-48
2022/06/09 01:19:20;;;;;;;9.10;4.90;;;;;;;18.86;42.94;99931.34;117425;1186;21844;-48
2022/06/09 01:22:02;;;;;;;8.30;4.60;;;;;;;18.81;42.99;99932.50;117365;1183;21942;-54
2022/06/09 01:25:08;;;;;;;11.10;5.30;;;;;;;18.78;43.05;99929.65;117386;1185;21890;-53
2022/06/09 01:27:44;;;;;;;8.20;4.50;;;;;;;18.77;43.14;99927.36;117250;1185;23537;-54
2022/06/09 01:30:31;;;;;;;6.90;4.90;;;;;;;18.76;43.19;99927.27;117413;1185;21849;-48
2022/06/09 01:33:01;;;;;;;7.90;4.80;;;;;;;18.74;43.21;99923.64;117349;1184;22897;-54
2022/06/09 01:36:09;;;;;;;9.40;5.00;;;;;;;18.71;43.29;99920.03;117417;1180;22911;-48
2022/06/09 01:38:47;;;;;;;9.60;5.50;;;;;;;18.66;43.31;99916.04;117255;1185;23592;-54
2022/06/09 01:41:16;;;;;;;8.00;5.20;;;;;;;18.65;43.41;99915.06;117462;1183;22135;-55
2022/06/09 01:43:43;;;;;;;9.90;5.10;;;;;;;18.64;43.40;99912.80;117472;1182;21849;-48
2022/06/09 01:46:32;;;;;;;10.90;5.30;;;;;;;18.59;43.41;99910.75;117149;1183;21855;-54
2022/06/09 01:49:08;;;;;;;8.50;4.90;;;;;;;18.54;43.47;99912.42;117439;1185;21849;-48
2022/06/09 01:51:35;;;;;;;13.60;6.00;;;;;;;18.49;43.50;99906.48;117408;1182;23539;-48
2022/06/09 01:54:23;;;;;;;8.70;5.00;;;;;;;18.43;43.54;99906.94;117437;1182;22965;-49
2022/06/09 01:56:50;;;;;;;9.00;6.20;;;;;;;18.41;43.58;99909.89;117382;1182;23605;-54
2022/06/09 01:59:24;;;;;;;11.60;5.60;;;;;;;18.40;43.66;99913.85;117399;1180;23637;-54
2022/06/09 02:01:57;;;;;;;9.10;5.20;;;;;;;18.39;43.71;99911.23;117472;1183;23430;-54
2022/06/09 02:04:27;;;;;;;8.30;5.70;;;;;;;18.39;43.75;99913.92;117470;1186;22609;-48
2022/06/09 02:06:53;;;;;;;9.50;5.60;;;;;;;18.38;43.80;99915.06;117410;1186;23459;-54
2022/06/09 02:09:24;;;;;;;9.80;6.10;;;;;;;18.37;43.79;99913.82;117342;1182;23637;-48
2022/06/09 02:11:52;;;;;;;;;;;;;;;18.37;43.90;99916.34;117375;1183;22724;-54
2022/06/09 02:14:21;;;;;;;8.60;5.80;;;;;;;18.37;43.89;99915.09;117404;1183;22081;-54
2022/06/09 02:16:48;;;;;;;10.60;5.20;;;;;;;18.37;44.03;99920.07;117416;1182;22612;-48
2022/06/09 02:19:15;;;;;;;11.20;5.20;;;;;;;18.36;44.00;99919.94;117504;1185;21855;-54
2022/06/09 02:21:42;;;;;;;8.60;5.70;;;;;;;18.37;44.13;99924.30;117426;1182;24130;-48
2022/06/09 02:24:09;;;;;;;10.10;5.80;;;;;;;18.38;44.14;99931.89;117375;1181;22885;-54
2022/06/09 02:26:36;;;;;;;10.20;6.00;;;;;;;18.42;44.26;99930.98;117401;1186;21846;-48
2022/06/09 02:29:03;;;;;;;8.30;5.50;;;;;;;18.46;44.28;99936.29;117389;1182;23585;-54
2022/06/09 02:31:30;;;;;;;8.70;5.90;;;;;;;18.50;44.35;99933.09;117384;1185;22982;-54
2022/06/09 02:33:57;;;;;;;8.60;5.80;;;;;;;18.51;44.37;99929.45;117390;1179;23174;-55
2022/06/09 02:36:24;;;;;;;10.90;6.80;;;;;;;18.52;44.35;99929.92;117439;1183;24224;-48
2022/06/09 02:38:51;;;;;;;14.20;6.10;;;;;;;18.55;44.38;99931.75;117410;1182;22982;-54
2022/06/09 02:41:19;;;;;;;10.40;6.60;;;;;;;18.59;44.46;99934.54;117448;1182;21838;-55
2022/06/09 02:43:46;;;;;;;8.40;6.30;;;;;;;18.61;44.40;99932.11;117548;1183;21870;-50
2022/06/09 02:46:13;;;;;;;11.00;6.30;;;;;;;18.63;44.46;99933.98;117559;1183;22100;-54
2022/06/09 02:48:41;;;;;;;9.40;6.00;;;;;;;18.65;44.50;99937.25;117332;1184;22938;-54
2022/06/09 02:51:27;;;;;;;8.10;6.00;;;;;;;18.68;44.44;99936.74;117413;1182;22913;-54
2022/06/09 02:53:55;;;;;;;11.00;5.40;;;;;;;18.71;44.57;99945.12;117333;1182;23560;-55
2022/06/09 02:56:23;;;;;;;18.00;6.50;;;;;;;18.74;44.57;99950.28;117434;1186;21846;-57
2022/06/09 02:58:50;;;;;;;11.30;5.50;;;;;;;18.77;44.63;99951.72;117316;1182;23554;-55
2022/06/09 03:01:18;;;;;;;8.90;5.80;;;;;;;18.82;44.59;99954.29;117279;1183;22981;-49
2022/06/09 03:03:45;;;;;;;12.10;5.70;;;;;;;18.86;44.65;99954.95;117368;1182;23247;-55
2022/06/09 03:06:12;;;;;;;13.00;5.70;;;;;;;18.92;44.65;99953.58;117315;1186;23430;-55
2022/06/09 03:08:39;;;;;;;10.80;5.70;;;;;;;18.98;44.74;99951.54;117339;1183;22878;-49
2022/06/09 03:11:06;;;;;;;10.20;6.00;;;;;;;19.05;44.75;99949.21;117428;1186;21849;-49
2022/06/09 03:13:33;;;;;;;9.00;5.60;;;;;;;19.11;44.80;99946.73;117343;1182;22287;-55
2022/06/09 03:16:00;;;;;;;11.90;5.50;;;;;;;19.18;44.85;99943.20;117300;1188;23650;-49
2022/06/09 03:18:27;;;;;;;8.40;5.20;;;;;;;19.24;44.84;99940.16;117371;1186;21848;-55
2022/06/09 03:20:54;;;;;;;7.50;5.70;;;;;;;19.29;44.86;99934.54;117357;1183;23541;-49
2022/06/09 03:23:21;;;;;;;8.60;5.50;;;;;;;19.35;44.80;99933.88;117394;1183;22940;-49
2022/06/09 03:25:49;;;;;;;8.70;5.80;;;;;;;19.42;44.84;99936.34;117404;1182;22915;-49
2022/06/09 03:28:16;;;;;;;11.10;6.10;;;;;;;19.49;44.83;99936.83;117364;1183;22088;-55
2022/06/09 03:30:44;;;;;;;9.80;5.40;;;;;;;19.55;44.91;99939.52;117329;1185;22934;-49
2022/06/09 03:33:11;;;;;;;11.30;5.90;;;;;;;19.63;44.93;99938.55;117457;1185;22975;-55
2022/06/09 03:35:38;;;;;;;8.10;5.80;;;;;;;19.72;44.98;99939.41;117316;1183;22977;-49
2022/06/09 03:38:06;;;;;;;8.90;5.40;;;;;;;19.83;44.92;99940.94;117359;1179;21913;-55
2022/06/09 03:40:33;;;;;;;7.50;5.20;;;;;;;19.93;44.83;99937.37;117430;1186;22965;-54
2022/06/09 03:43:02;;;;;;;12.20;5.10;;;;;;;20.02;44.80;99943.24;117397;1182;23637;-55
2022/06/09 03:45:31;;;;;;;8.20;5.50;;;;;;;20.12;44.79;99948.21;117481;1185;21845;-54
2022/06/09 03:47:58;;;;;;;7.60;5.50;;;;;;;20.22;44.82;99950.99;117398;1185;23436;-49
2022/06/09 03:50:27;;;;;;;9.80;5.50;;;;;;;20.33;44.75;99950.19;117475;1186;21848;-49
2022/06/09 03:52:54;;;;;;;11.00;5.50;;;;;;;20.44;44.81;99953.59;117509;1183;21846;-55
2022/06/09 03:55:21;;;;;;;10.40;5.60;;;;;;;20.55;44.84;99953.33;117307;1183;21891;-56
2022/06/09 03:57:48;;;;;;;8.30;5.60;;;;;;;20.69;44.75;99949.05;117296;1185;21855;-50
2022/06/09 04:00:21;;;;;;;11.00;5.70;;;;;;;20.82;44.81;99945.46;117316;1183;23547;-50
2022/06/09 04:02:48;;;;;;;8.70;5.10;;;;;;;20.98;44.68;99940.75;117306;1182;22170;-51
2022/06/09 04:05:16;;;;;;;10.80;5.60;;;;;;;21.12;44.56;99941.44;117343;1183;23506;-56
2022/06/09 04:07:43;;;;;;;8.40;5.20;;;;;;;21.27;44.51;99941.42;117310;1182;21849;-56
2022/06/09 04:10:30;;;;;;;9.00;5.10;;;;;;;21.41;44.49;99938.54;117394;1182;24143;-50
2022/06/09 04:12:57;;;;;;;11.40;7.20;;;;;;;21.56;44.33;99934.52;117504;1182;22979;-55
2022/06/09 04:15:24;;;;;;;11.10;6.30;;;;;;;21.70;44.29;99931.34;117444;1183;22621;-50
2022/06/09 04:17:54;;;;;;;8.30;5.60;;;;;;;21.83;44.27;99927.61;117339;1183;22975;-55
2022/06/09 04:20:23;;;;;;;6.40;4.80;;;;;;;21.96;44.08;99927.30;117397;1187;21849;-50
2022/06/09 04:22:50;;;;;;;9.00;5.50;;;;;;;22.10;44.11;99925.67;117407;1184;21891;-56
2022/06/09 04:25:19;;;;;;;10.90;5.30;;;;;;;22.25;44.19;99925.55;117436;1182;22901;-55
2022/06/09 04:27:46;;;;;;;7.10;5.10;;;;;;;22.42;44.05;99928.34;117427;1182;23551;-51
2022/06/09 04:30:13;;;;;;;8.00;4.90;;;;;;;22.59;43.94;99925.41;117443;1184;24176;-56
2022/06/09 04:32:40;;;;;;;11.30;4.90;;;;;;;22.79;43.77;99929.39;117377;1185;21890;-57
2022/06/09 04:35:08;;;;;;;8.70;5.10;;;;;;;22.98;43.69;99935.16;117434;1185;21845;-56
2022/06/09 04:40:23;;;;;;;7.90;4.70;;;;;;;23.41;43.74;99935.17;117306;1186;23682;-56
2022/06/09 04:42:51;;;;;;;8.40;4.50;;;;;;;23.60;43.52;99938.94;117413;1184;21930;-56
2022/06/09 04:45:18;;;;;;;8.50;4.50;;;;;;;23.82;43.36;99934.29;117451;1185;24224;-52
2022/06/09 04:47:45;;;;;;;9.60;5.00;;;;;;;24.06;43.22;99937.39;117525;1185;24146;-56
2022/06/09 04:50:13;;;;;;;8.00;4.60;;;;;;;24.28;43.11;99941.80;117485;1185;23634;-55
2022/06/09 04:52:40;;;;;;;9.90;4.90;;;;;;;24.51;42.98;99942.57;117471;1185;21848;-56
2022/06/09 04:55:08;;;;;;;9.50;4.30;;;;;;;24.74;42.84;99947.23;117388;1185;23541;-51
2022/06/09 04:57:35;;;;;;;9.90;4.50;;;;;;;24.99;42.87;99948.19;117417;1185;23551;-56
2022/06/09 05:00:05;;;;;;;7.50;4.40;;;;;;;25.23;42.69;99947.89;117364;1185;24180;-50
2022/06/09 05:02:32;;;;;;;6.70;4.50;;;;;;;25.47;42.58;99949.04;117456;1185;21890;-51
2022/06/09 05:04:59;;;;;;;7.70;4.30;;;;;;;25.71;42.44;99948.32;117355;1185;23538;-52
2022/06/09 05:07:27;;;;;;;7.10;4.10;;;;;;;25.92;42.21;99946.55;117435;1184;23056;-56
2022/06/09 05:09:54;;;;;;;7.40;4.50;;;;;;;26.14;42.02;99941.23;117475;1182;24192;-52
2022/06/09 05:12:22;;;;;;;8.30;3.80;;;;;;;26.34;42.03;99934.84;117385;1185;23583;-56
2022/06/09 05:14:52;;;;;;;8.20;3.80;;;;;;;26.55;41.73;99936.80;117483;1184;22831;-56
2022/06/09 05:17:19;;;;;;;5.60;3.80;;;;;;;26.76;41.54;99936.26;117315;1186;21851;-52
2022/06/09 05:19:46;;;;;;;9.20;3.90;;;;;;;26.98;41.26;99935.09;117310;1185;22625;-52
2022/06/09 05:22:13;;;;;;;5.60;3.50;;;;;;;27.17;41.11;99934.64;117425;1184;22809;-56
2022/06/09 05:24:41;;;;;;;6.10;3.70;;;;;;;27.38;40.96;99930.33;117445;1185;23462;-53
2022/06/09 05:27:11;;;;;;;5.10;3.10;;;;;;;27.57;40.56;99925.71;117424;1186;23544;-56
2022/06/09 05:29:38;;;;;;;6.40;3.00;;;;;;;27.75;40.37;99924.11;117407;1182;21938;-54
2022/06/09 05:32:05;;;;;;;7.50;2.90;;;;;;;27.93;40.21;99926.61;117334;1182;23445;-57
2022/06/09 05:34:32;;;;;;;5.50;2.90;;;;;;;28.11;40.10;99921.66;117402;1184;22925;-56
2022/06/09 05:37:00;;;;;;;7.30;3.00;;;;;;;28.29;39.63;99914.04;117309;1180;21849;-53
2022/06/09 05:45:00;;;;;;;5.90;2.40;;;;;;;28.99;38.94;99911.42;117369;1185;23064;-54
2022/06/09 05:47:27;;;;;;;11.20;2.70;;;;;;;29.20;38.66;99910.45;117473;1185;22985;-56
2022/06/09 05:49:54;;;;;;;6.20;2.70;;;;;;;29.42;38.68;99914.50;117422;1182;23435;-56
2022/06/09 05:52:24;;;;;;;7.10;2.50;;;;;;;29.63;38.46;99911.30;117445;1185;22922;-56
2022/06/09 05:54:51;;;;;;;4.20;2.40;;;;;;;29.83;38.13;99909.83;117408;1184;21890;-53
2022/06/09 05:57:19;;;;;;;4.90;2.30;;;;;;;30.02;37.99;99908.48;117432;1183;22915;-54
2022/06/09 05:59:46;;;;;;;5.00;2.30;;;;;;;30.18;37.76;99908.65;117403;1185;22609;-56
2022/06/09 06:02:15;;;;;;;5.80;2.40;;;;;;;30.35;37.22;99906.96;117612;1180;22918;-53
2022/06/09 06:04:43;;;;;;;6.60;2.20;;;;;;;30.52;37.11;99903.61;117455;1182;23538;-56
2022/06/09 06:07:10;;;;;;;4.20;2.50;;;;;;;30.68;37.00;99903.02;117442;1182;23576;-57
2022/06/09 06:09:37;;;;;;;4.40;2.20;;;;;;;30.84;36.77;99900.69;117403;1182;24255;-56
2022/06/09 06:12:04;;;;;;;3.90;2.20;;;;;;;31.01;36.68;99898.51;117395;1185;23536;-53
2022/06/09 06:14:34;;;;;;;3.70;1.90;;;;;;;31.16;36.15;99894.56;117354;1185;21850;-56
2022/06/09 06:17:02;;;;;;;2.90;1.80;;;;;;;31.32;35.97;99892.31;117483;1185;22750;-51
2022/06/09 06:19:30;;;;;;;3.80;1.40;;;;;;;31.50;35.95;99893.23;117309;1185;21866;-52
2022/06/09 06:21:57;;;;;;;3.20;1.90;;;;;;;31.71;35.72;99890.23;117251;1183;22917;-52
2022/06/09 06:24:24;;;;;;;5.80;1.90;;;;;;;31.89;35.30;99885.23;118401;1185;23541;-56
2022/06/09 06:26:52;;;;;;;4.30;1.80;;;;;;;32.02;34.81;99886.35;117428;1185;22979;-53
2022/06/09 06:29:22;;;;;;;15.90;2.00;;;;;;;32.11;34.68;99885.50;117380;1184;23435;-57
2022/06/09 06:31:50;;;;;;;4.20;1.60;;;;;;;32.23;34.49;99883.50;117411;1183;21848;-54
2022/06/09 06:34:17;;;;;;;3.60;1.40;;;;;;;32.38;34.38;99876.63;117435;1185;21855;-54
2022/06/09 06:36:44;;;;;;;8.10;1.60;;;;;;;32.57;34.19;99877.73;117340;1185;21854;-54
2022/06/09 06:39:11;;;;;;;2.60;1.20;;;;;;;32.74;33.75;99878.70;117303;1185;22640;-56
2022/06/09 06:41:39;;;;;;;2.80;1.50;;;;;;;32.87;33.58;99876.15;117355;1184;23583;-55
2022/06/09 06:44:07;;;;;;;3.40;1.40;;;;;;;32.99;33.44;99876.81;117414;1185;21888;-54
2022/06/09 06:46:34;;;;;;;5.00;1.40;;;;;;;33.06;33.28;99880.39;117439;1186;22985;-54
2022/06/09 06:49:02;;;;;;;3.50;1.00;;;;;;;33.12;32.93;99881.24;117512;1184;21887;-54
2022/06/09 06:51:29;;;;;;;5.70;1.40;;;;;;;33.13;32.74;99878.48;117414;1185;23589;-54
2022/06/09 06:53:56;;;;;;;3.50;1.90;;;;;;;33.16;32.56;99876.79;117389;1182;23537;-54
2022/06/09 06:56:23;;;;;;;4.80;1.10;;;;;;;33.23;32.25;99875.66;117413;1185;22896;-54
2022/06/09 06:58:51;;;;;;;3.40;1.50;;;;;;;33.33;32.01;99875.05;117411;1184;22639;-54
2022/06/09 07:01:19;;;;;;;4.50;1.30;;;;;;;33.37;32.02;99878.79;117416;1184;23537;-57
2022/06/09 07:03:46;;;;;;;6.00;1.60;;;;;;;33.42;31.43;99879.15;117282;1185;22907;-58
2022/06/09 07:06:13;;;;;;;5.10;1.40;;;;;;;33.22;30.74;99878.88;117333;1186;21846;-54
2022/06/09 07:08:40;;;;;;;4.70;1.50;;;;;;;32.85;30.37;99877.67;117270;1184;22905;-58
2022/06/09 07:11:08;;;;;;;2.80;1.40;;;;;;;32.56;30.70;99878.38;117311;1184;22895;-55
2022/06/09 07:13:37;;;;;;;4.30;1.40;;;;;;;32.44;30.69;99880.43;117364;1185;21851;-57
2022/06/09 07:16:06;;;;;;;6.80;1.80;;;;;;;32.40;30.47;99883.67;117425;1186;23513;-54
2022/06/09 07:18:53;;;;;;;2.20;1.50;;;;;;;32.48;30.98;99882.36;117348;1186;22314;-58
2022/06/09 07:21:21;;;;;;;4.50;2.00;;;;;;;32.66;30.44;99886.52;117363;1181;22471;-58
2022/06/09 07:23:48;;;;;;;4.50;1.40;;;;;;;32.64;30.52;99881.83;117436;1185;22166;-54
2022/06/09 07:26:15;;;;;;;4.70;1.40;;;;;;;32.50;30.72;99878.54;117358;1185;22616;-55
2022/06/09 07:28:42;;;;;;;5.00;1.70;;;;;;;32.42;30.88;99880.47;117386;1182;22955;-53
2022/06/09 07:31:09;;;;;;;5.60;1.80;;;;;;;32.42;31.06;99880.51;117422;1186;22623;-57
2022/06/09 07:33:38;;;;;;;4.00;1.40;;;;;;;32.46;31.00;99880.63;117386;1186;21852;-55
2022/06/09 07:36:07;;;;;;;3.50;1.50;;;;;;;32.44;30.95;99882.65;117404;1183;24685;-57
2022/06/09 07:38:35;;;;;;;4.60;1.40;;;;;;;32.40;31.02;99878.00;117266;1182;22886;-54
2022/06/09 07:41:02;;;;;;;4.90;1.80;;;;;;;32.42;30.83;99875.11;117220;1184;21938;-55
2022/06/09 07:43:50;;;;;;;6.20;1.80;;;;;;;32.44;30.86;99872.23;117266;1182;21845;-53
2022/06/09 07:46:17;;;;;;;3.30;1.50;;;;;;;32.57;31.31;99873.76;117379;1182;22611;-53
2022/06/09 07:48:45;;;;;;;5.00;1.70;;;;;;;32.90;31.33;99870.41;117342;1186;22932;-54
2022/06/09 07:51:16;;;;;;;3.80;1.30;;;;;;;33.28;30.82;99874.16;117353;1182;22989;-53
2022/06/09 07:53:43;;;;;;;7.60;5.00;;;;;;;33.43;30.43;99873.76;117367;1186;21855;-54
2022/06/09 07:56:11;;;;;;;3.40;2.10;;;;;;;33.47;30.36;99871.99;117323;1182;22925;-52
2022/06/09 07:58:38;;;;;;;6.40;1.70;;;;;;;33.57;30.52;99869.16;117310;1181;22933;-53
2022/06/09 08:01:05;;;;;;;4.20;1.20;;;;;;;33.76;29.80;99873.82;117341;1183;22150;-57
2022/06/09 08:03:32;;;;;;;3.00;1.40;;;;;;;33.85;29.85;99868.48;117319;1183;21888;-53
2022/06/09 08:06:00;;;;;;;8.10;2.50;;;;;;;34.02;30.10;99870.02;117359;1183;22903;-54
2022/06/09 08:08:47;;;;;;;4.00;1.70;;;;;;;34.27;30.24;99865.80;117367;1185;22712;-53
2022/06/09 08:11:14;;;;;;;3.00;1.60;;;;;;;34.64;30.37;99865.71;117321;1183;21931;-53
2022/06/09 08:13:40;;;;;;;5.80;1.50;;;;;;;35.01;29.93;99865.55;117323;1184;23643;-57
2022/06/09 08:16:08;;;;;;;2.20;1.30;;;;;;;35.31;29.97;99866.20;117356;1182;22915;-54
2022/06/09 08:18:35;;;;;;;3.50;1.20;;;;;;;35.62;29.47;99868.94;117329;1183;23514;-54
2022/06/09 08:21:02;;;;;;;4.10;1.80;;;;;;;35.60;28.88;99870.70;117249;1182;23597;-58
2022/06/09 08:23:47;;;;;;;3.90;1.50;;;;;;;35.42;29.03;99871.30;117322;1182;22913;-57
2022/06/09 08:26:14;;;;;;;4.30;1.70;;;;;;;35.36;28.91;99869.84;117399;1186;21849;-58
2022/06/09 08:28:41;;;;;;;4.70;1.60;;;;;;;35.40;28.72;99870.17;117374;1187;21839;-58
2022/06/09 08:31:08;;;;;;;4.70;1.70;;;;;;;35.39;28.80;99870.26;117386;1182;21845;-58
2022/06/09 08:33:36;;;;;;;2.40;1.40;;;;;;;35.39;28.61;99869.75;117385;1182;23622;-58
2022/06/09 08:36:03;;;;;;;3.60;1.80;;;;;;;35.44;28.38;99872.24;117413;1188;21846;-58
2022/06/09 08:38:30;;;;;;;4.50;1.50;;;;;;;35.52;28.45;99871.80;117442;1186;22914;-58
2022/06/09 08:41:17;;;;;;;3.50;1.40;;;;;;;35.78;29.00;99873.68;117386;1183;23535;-57
2022/06/09 08:43:52;;;;;;;2.90;1.30;;;;;;;36.26;28.88;99875.20;117386;1183;21961;-58
2022/06/09 08:46:34;;;;;;;2.80;1.40;;;;;;;36.72;28.46;99873.95;117365;1186;21849;-58
2022/06/09 08:49:02;;;;;;;3.40;1.20;;;;;;;37.20;28.43;99868.63;117387;1182;21880;-58
2022/06/09 08:51:45;;;;;;;7.50;1.30;;;;;;;37.63;28.24;99874.07;117388;1185;22796;-55
2022/06/09 08:54:33;;;;;;;3.70;1.20;;;;;;;38.04;27.93;99870.00;117322;1185;21834;-55
2022/06/09 08:57:04;;;;;;;2.70;1.30;;;;;;;38.18;27.09;99871.94;117404;1182;22415;-58
2022/06/09 08:59:37;;;;;;;5.80;1.60;;;;;;;38.00;26.46;99877.32;117335;1188;22097;-57
2022/06/09 09:02:20;;;;;;;3.30;1.50;;;;;;;37.79;26.39;99877.17;117390;1186;21884;-57
2022/06/09 09:04:51;;;;;;;2.10;1.30;;;;;;;37.60;26.42;99879.94;117396;1184;21845;-57
2022/06/09 09:07:26;;;;;;;4.80;1.70;;;;;;;37.54;26.02;99880.06;117523;1182;22933;-57
2022/06/09 09:10:20;;;;;;;4.90;1.50;;;;;;;37.41;26.52;99877.35;117367;1186;21843;-57
2022/06/09 09:13:22;;;;;;;6.20;1.20;;;;;;;37.69;26.92;99876.86;117370;1182;23564;-56
2022/06/09 09:15:56;;;;;;;6.70;1.40;;;;;;;38.30;26.75;99879.06;117109;1184;22908;-57
2022/06/09 09:18:35;;;;;;;9.50;1.50;;;;;;;38.66;25.75;99885.38;117460;1182;21919;-57
2022/06/09 09:21:15;;;;;;;1.50;1.10;;;;;;;38.80;25.74;99881.41;117458;1186;21846;-54
2022/06/09 09:24:30;;;;;;;5.50;1.30;;;;;;;39.00;25.80;99879.58;117445;1183;24145;-56
2022/06/09 09:27:12;;;;;;;4.90;1.40;;;;;;;39.32;24.92;99884.41;117325;1184;22886;-56
2022/06/09 09:29:49;;;;;;;3.70;1.30;;;;;;;39.41;24.57;99887.42;117374;1182;21903;-54
2022/06/09 09:32:19;;;;;;;5.80;1.10;;;;;;;39.21;24.95;99888.02;117375;1181;21849;-56
2022/06/09 09:34:47;;;;;;;3.10;1.20;;;;;;;39.12;24.21;99884.17;117345;1184;22800;-53
2022/06/09 09:37:29;;;;;;;4.20;1.00;;;;;;;38.63;23.39;99889.52;117626;1185;22811;-54
2022/06/09 09:40:10;;;;;;;2.70;1.10;;;;;;;37.98;23.63;99890.02;117441;1183;22922;-56
2022/06/09 09:42:41;;;;;;;3.10;1.20;;;;;;;37.67;24.31;99888.82;117336;1185;23622;-54
2022/06/09 09:45:11;;;;;;;6.50;1.60;;;;;;;37.89;24.54;99883.39;117393;1182;23429;-56
2022/06/09 09:47:53;;;;;;;5.80;1.50;;;;;;;38.36;24.16;99883.38;117346;1185;21847;-54
2022/06/09 09:50:48;;;;;;;1.70;0.90;;;;;;;38.73;23.85;99880.80;117378;1184;22825;-57
2022/06/09 09:53:18;;;;;;;2.30;1.00;;;;;;;38.84;23.29;99875.78;117875;1186;21886;-55
2022/06/09 09:56:02;;;;;;;3.10;1.10;;;;;;;38.71;22.61;99871.20;117423;1181;22910;-53
2022/06/09 09:58:39;;;;;;;3.20;1.00;;;;;;;38.55;23.11;99871.16;117388;1184;21896;-53
2022/06/09 10:01:32;;;;;;;1.90;1.00;;;;;;;38.78;23.15;99867.46;117400;1182;21845;-57
2022/06/09 10:10:26;;;;;;;1.70;1.00;;;;;;;38.70;22.38;99858.04;117259;1184;21840;-58
2022/06/09 10:12:55;;;;;;;1.90;1.00;;;;;;;38.77;22.56;99855.65;117350;1182;22915;-57
2022/06/09 10:15:23;;;;;;;4.20;1.30;;;;;;;38.98;22.59;99849.95;117385;1184;21849;-55
2022/06/09 10:18:18;;;;;;;2.00;1.00;;;;;;;39.31;22.39;99852.11;117306;1186;21840;-54
2022/06/09 10:21:06;;;;;;;3.80;1.10;;;;;;;39.43;22.42;99846.59;117319;1184;21852;-54
2022/06/09 10:23:57;;;;;;;4.00;1.20;;;;;;;39.44;21.91;99851.58;117365;1182;21937;-54
2022/06/09 10:26:33;;;;;;;4.20;1.10;;;;;;;39.03;22.00;99843.77;117381;1186;23541;-54
2022/06/09 10:29:38;;;;;;;2.30;1.00;;;;;;;38.79;21.84;99846.21;117318;1185;23593;-54
2022/06/09 10:32:24;;;;;;;3.10;1.10;;;;;;;38.69;21.91;99844.42;117269;1185;21900;-54
2022/06/09 10:34:56;;;;;;;2.00;1.00;;;;;;;38.53;21.33;99836.45;117353;1182;21934;-54
2022/06/09 10:37:49;;;;;;;2.10;0.90;;;;;;;38.48;21.25;99837.06;117302;1185;22607;-53
2022/06/09 10:40:26;;;;;;;5.90;1.10;;;;;;;38.70;21.71;99838.38;117523;1182;21851;-56
2022/06/09 10:43:13;;;;;;;3.30;1.50;;;;;;;38.99;21.51;99835.94;117387;1184;22189;-54
2022/06/09 10:45:49;;;;;;;1.90;1.10;;;;;;;39.21;21.81;99830.45;117672;1186;22986;-56
2022/06/09 10:57:03;;;;;;;1.10;0.80;;;;;;;40.32;20.61;99822.39;117398;1182;23453;-57
2022/06/09 10:59:39;;;;;;;3.70;1.00;;;;;;;40.11;19.72;99820.17;117453;1182;22924;-57
2022/06/09 11:02:27;;;;;;;2.60;1.10;;;;;;;39.79;19.71;99831.02;117445;1182;22890;-54
2022/06/09 11:04:54;;;;;;;3.00;0.80;;;;;;;39.48;19.95;99831.34;117386;1185;23436;-57
2022/06/09 11:07:25;;;;;;;2.70;1.30;;;;;;;39.56;20.48;99819.55;117324;1182;23433;-57
2022/06/09 11:10:26;;;;;;;2.40;1.00;;;;;;;39.82;20.16;99822.52;117347;1183;21856;-54
2022/06/09 11:13:21;;;;;;;3.60;0.90;;;;;;;39.89;19.82;99824.67;117367;1185;22915;-54
2022/06/09 11:15:55;;;;;;;1.30;0.90;;;;;;;39.75;19.48;99821.23;117396;1188;22915;-58
2022/06/09 11:18:40;;;;;;;4.00;1.20;;;;;;;39.43;19.27;99820.80;117412;1184;22954;-54
2022/06/09 11:21:15;;;;;;;2.30;0.90;;;;;;;38.98;19.04;99821.59;117379;1183;22895;-57
2022/06/09 11:24:05;;;;;;;1.80;1.00;;;;;;;38.50;19.16;99821.53;117387;1185;21834;-56
2022/06/09 11:26:41;;;;;;;;;;;;;;;38.41;19.87;99814.91;117363;1182;22905;-54
2022/06/09 11:29:14;;;;;;;4.60;1.50;;;;;;;38.81;19.86;99820.66;117366;1182;24145;-54
2022/06/09 11:32:09;;;;;;;3.80;1.20;;;;;;;38.86;19.82;99814.25;117385;1182;21840;-54
2022/06/09 11:34:48;;;;;;;3.60;1.20;;;;;;;38.62;19.81;99811.92;117448;1186;22323;-57
2022/06/09 11:37:18;;;;;;;2.90;1.20;;;;;;;38.61;20.20;99810.63;117322;1182;23053;-54
2022/06/09 11:40:23;;;;;;;6.40;1.20;;;;;;;38.97;20.18;99811.02;117398;1186;21858;-57
2022/06/09 11:42:53;;;;;;;4.10;1.30;;;;;;;39.13;19.80;99805.60;117368;1182;21849;-57
2022/06/09 11:45:27;;;;;;;6.20;1.50;;;;;;;38.90;20.12;99807.84;117343;1181;23589;-55
2022/06/09 11:47:54;;;;;;;2.70;1.20;;;;;;;38.80;20.32;99809.36;117452;1182;21955;-53
2022/06/09 11:50:24;;;;;;;5.80;1.60;;;;;;;38.69;19.93;99806.70;117373;1186;23557;-53
2022/06/09 11:52:52;;;;;;;3.70;1.60;;;;;;;38.56;20.26;99806.73;117221;1183;23432;-56
2022/06/09 11:58:35;;;;;;;7.60;1.40;;;;;;;39.19;20.51;99809.94;117332;1184;22703;-57
2022/06/09 12:01:39;;;;;;;5.10;1.40;;;;;;;38.98;20.16;99811.77;117286;1182;22639;-57
2022/06/09 12:04:14;;;;;;;6.40;1.30;;;;;;;38.65;20.35;99809.27;117352;1185;23616;-54
2022/06/09 12:07:29;;;;;;;2.60;1.30;;;;;;;38.69;20.21;99806.87;117350;1186;21848;-57
2022/06/09 12:09:59;;;;;;;5.10;1.40;;;;;;;38.52;20.15;99799.80;117331;1185;22985;-54
2022/06/09 12:12:30;;;;;;;;;;;;;;;38.35;20.25;99793.52;117403;1183;24164;-57
2022/06/09 12:15:22;;;;;;;3.10;1.10;;;;;;;38.12;20.19;99793.25;117412;1185;22986;-58